ENML/MOL METAR and TAF weather

Enter ICAO airport designator
Station Type Date Time Source
ENML METAR 2021/04/17 02:50 UTC NOAA

ENML 170250Z AUTO 05006KT 9999NDV NCD M01/M04 Q1034


Station Type Date Time Source
ENML Decoded METAR 2021/04/17 02:50 UTC NOAA

Molde / Aro, Norway (ENML) 62-45N 007-16E 3M
Apr 16, 2021 - 10:50 PM EDT / 2021.04.17 0250 UTC
Wind: from the NE (050 degrees) at 7 MPH (6 KT):0
Temperature: 30 F (-1 C)
Windchill: 23 F (-5 C):1
Dew Point: 24 F (-4 C)
Relative Humidity: 80%
Pressure (altimeter): 30.53 in. Hg (1034 hPa)
ob: ENML 170250Z AUTO 05006KT 9999NDV NCD M01/M04 Q1034
cycle: 3

Station Type Date Time Source
ENML TAF UTC NOAA

Error!

Example: see airport list